createdAt,value
2022-12-15T17:34:28.080Z,49.90
2022-12-15T17:34:59.232Z,52.50
2022-12-15T17:35:30.240Z,54.00
2022-12-15T17:36:02.121Z,54.50
2022-12-15T17:36:33.026Z,53.50
2022-12-15T17:37:03.946Z,56.90
2022-12-15T17:37:35.590Z,55.40
2022-12-15T17:38:06.567Z,55.30
2022-12-15T17:38:38.533Z,53.70
2022-12-15T17:39:09.427Z,54.20
2022-12-15T17:39:40.343Z,57.60
2022-12-15T17:40:11.212Z,56.70
2022-12-15T17:40:42.127Z,52.50
2022-12-15T17:41:35.166Z,54.80
2022-12-15T17:42:02.384Z,53.70
2022-12-15T17:42:18.583Z,55.00
2022-12-15T17:42:49.457Z,53.80
2022-12-15T17:43:20.437Z,52.00
2022-12-15T17:44:09.861Z,49.20
2022-12-15T17:44:32.863Z,46.00
2022-12-15T17:44:56.736Z,47.90
2022-12-15T17:45:27.604Z,47.10
2022-12-15T17:45:58.599Z,47.10
2022-12-15T17:46:29.623Z,45.30
2022-12-15T17:47:00.828Z,45.00
2022-12-15T17:47:31.762Z,44.40
2022-12-15T17:48:02.656Z,46.30
2022-12-15T17:48:33.721Z,46.50
2022-12-15T17:49:04.704Z,46.30
2022-12-15T17:49:37.310Z,44.60
2022-12-15T17:50:06.073Z,43.20
2022-12-15T17:50:36.990Z,45.20
2022-12-15T17:51:07.826Z,42.30
2022-12-15T17:51:38.711Z,42.70
2022-12-15T17:52:09.555Z,45.50
2022-12-15T17:52:40.408Z,44.20
2022-12-15T17:53:11.475Z,45.30
2022-12-15T17:53:42.539Z,47.10
2022-12-15T17:54:13.484Z,45.80
2022-12-15T17:54:44.476Z,47.80
2022-12-15T17:55:15.560Z,46.50
2022-12-15T17:55:46.489Z,46.10
2022-12-15T17:56:17.398Z,47.50
2022-12-15T17:56:49.022Z,43.90
2022-12-15T17:57:19.898Z,44.80
2022-12-15T17:57:50.896Z,45.10
2022-12-15T17:58:22.008Z,43.80
2022-12-15T17:58:52.895Z,43.30
2022-12-15T17:59:23.980Z,51.90
2022-12-15T17:59:54.954Z,56.90
2022-12-15T18:00:25.836Z,52.40
2022-12-15T18:00:56.829Z,51.70
2022-12-15T18:01:27.903Z,52.40
2022-12-15T18:01:58.959Z,52.50
2022-12-15T18:02:30.082Z,48.70
2022-12-15T18:03:01.623Z,49.00
2022-12-15T18:03:33.141Z,44.40
2022-12-15T18:04:04.563Z,44.90
2022-12-15T18:04:35.927Z,43.30
2022-12-15T18:05:07.805Z,43.80
2022-12-15T18:05:38.741Z,43.00
2022-12-15T18:06:09.755Z,44.00
2022-12-15T18:06:41.051Z,43.10
2022-12-15T18:07:12.064Z,44.70
2022-12-15T18:07:42.944Z,47.60
2022-12-15T18:08:14.094Z,44.00
2022-12-15T18:08:45.031Z,43.60
2022-12-15T18:09:16.046Z,42.30
2022-12-15T18:09:47.178Z,42.50
2022-12-15T18:10:18.109Z,41.90
2022-12-15T18:10:49.160Z,41.50
2022-12-15T18:11:20.146Z,43.20
2022-12-15T18:11:51.155Z,46.70
2022-12-15T18:12:22.108Z,48.10
2022-12-15T18:12:52.974Z,46.90
2022-12-15T18:13:24.028Z,46.40
2022-12-15T18:13:54.930Z,47.00
2022-12-15T18:14:25.769Z,45.50
2022-12-15T18:14:56.635Z,44.60
2022-12-15T18:15:28.493Z,43.10
2022-12-15T18:16:00.565Z,44.80
2022-12-15T18:16:31.775Z,46.50
2022-12-15T18:17:02.718Z,43.40
2022-12-15T18:17:33.610Z,44.60
2022-12-15T18:18:04.446Z,46.80
2022-12-15T18:18:35.278Z,48.70
2022-12-15T18:19:06.286Z,45.70
2022-12-15T18:19:37.228Z,49.70
2022-12-15T18:20:08.222Z,49.10
2022-12-15T18:20:39.084Z,48.60
2022-12-15T18:21:09.938Z,48.70
2022-12-15T18:21:40.839Z,48.50
2022-12-15T18:22:11.923Z,50.30
2022-12-15T18:22:42.829Z,50.30
2022-12-15T18:23:13.725Z,50.40
2022-12-15T18:23:45.050Z,50.30
2022-12-15T18:24:16.217Z,51.90
2022-12-15T18:24:47.137Z,51.30
2022-12-15T18:25:17.922Z,52.40
2022-12-15T18:25:48.813Z,54.70
2022-12-15T18:26:20.184Z,56.40
2022-12-15T18:26:51.389Z,55.20
2022-12-15T18:27:22.365Z,55.10
2022-12-15T18:27:53.160Z,54.10
2022-12-15T18:28:23.999Z,51.90
2022-12-15T18:28:54.920Z,49.10
2022-12-15T18:29:25.737Z,49.30
2022-12-15T18:29:56.690Z,47.50
2022-12-15T18:30:27.595Z,46.40
2022-12-15T18:30:58.378Z,48.00
2022-12-15T18:31:29.277Z,47.30
2022-12-15T18:32:00.203Z,47.70
2022-12-15T18:32:31.160Z,46.10
2022-12-15T18:33:01.947Z,43.30
2022-12-15T18:33:33.099Z,46.20
2022-12-15T18:34:05.144Z,43.40
2022-12-15T18:34:36.037Z,42.50
2022-12-15T18:35:06.835Z,44.80
2022-12-15T18:35:39.345Z,45.50
2022-12-15T18:36:11.637Z,46.10
2022-12-15T18:36:42.455Z,43.40
2022-12-15T18:37:13.233Z,45.70
2022-12-15T18:37:44.061Z,43.10
2022-12-15T18:38:14.911Z,44.60
2022-12-15T18:38:45.713Z,43.70
2022-12-15T18:39:16.528Z,45.80
2022-12-15T18:39:47.359Z,45.50
2022-12-15T18:40:18.186Z,46.20
2022-12-15T18:40:48.967Z,44.70
2022-12-15T18:41:28.463Z,47.00
2022-12-15T18:41:50.358Z,46.60
2022-12-15T18:42:21.207Z,45.50
2022-12-15T18:42:51.993Z,45.40
2022-12-15T18:43:22.825Z,46.10
2022-12-15T18:43:53.613Z,45.00
2022-12-15T18:44:24.481Z,45.00
2022-12-15T18:44:55.279Z,44.60
2022-12-15T18:45:28.213Z,44.90
2022-12-15T18:45:56.269Z,44.60
2022-12-15T18:46:27.118Z,43.70
2022-12-15T18:47:03.089Z,42.10
2022-12-15T18:47:31.467Z,43.30
2022-12-15T18:48:02.438Z,42.20
2022-12-15T18:48:33.611Z,42.00
2022-12-15T18:49:04.650Z,42.30
2022-12-15T18:49:35.902Z,42.90
2022-12-15T18:50:07.200Z,43.20
2022-12-15T18:50:38.291Z,43.00
2022-12-15T18:51:09.326Z,41.60
2022-12-15T18:51:40.370Z,42.20
2022-12-15T18:52:11.402Z,43.60
2022-12-15T18:52:42.560Z,42.40
2022-12-15T18:53:13.788Z,42.40
2022-12-15T18:53:44.995Z,47.20
2022-12-15T18:54:16.136Z,58.70
2022-12-15T18:54:47.253Z,60.10
2022-12-15T18:55:18.135Z,60.90
2022-12-15T18:55:49.020Z,61.80
2022-12-15T18:56:19.949Z,66.80
2022-12-15T18:56:53.019Z,66.50
2022-12-15T18:57:22.646Z,65.20
2022-12-15T18:57:53.413Z,58.60
2022-12-15T18:58:25.450Z,58.20
2022-12-15T18:58:56.236Z,56.30
2022-12-15T18:59:27.016Z,56.60
2022-12-15T18:59:57.868Z,50.20
2022-12-15T19:00:28.726Z,47.90
2022-12-15T19:00:59.617Z,48.20
2022-12-15T19:01:30.621Z,47.70
2022-12-15T19:02:01.618Z,46.70
2022-12-15T19:02:32.762Z,48.30
2022-12-15T19:03:04.385Z,49.00
2022-12-15T19:03:36.445Z,57.80
2022-12-15T19:04:07.691Z,64.10
2022-12-15T19:04:38.570Z,63.30
2022-12-15T19:05:09.949Z,61.90
2022-12-15T19:05:41.385Z,70.40
2022-12-15T19:06:12.498Z,68.40
2022-12-15T19:06:43.822Z,66.40
2022-12-15T19:07:15.621Z,59.20
2022-12-15T19:07:46.806Z,58.40
2022-12-15T19:08:18.039Z,58.60
2022-12-15T19:08:48.979Z,57.90
2022-12-15T19:09:20.066Z,56.30
2022-12-15T19:09:51.160Z,64.90
2022-12-15T19:10:21.990Z,62.30
2022-12-15T19:10:52.852Z,63.70
2022-12-15T19:11:24.125Z,60.00
2022-12-15T19:11:55.082Z,56.30
2022-12-15T19:12:27.432Z,51.80
2022-12-15T19:12:58.826Z,52.10
2022-12-15T19:13:30.068Z,51.80
2022-12-15T19:14:01.098Z,49.40
2022-12-15T19:14:31.992Z,50.30
2022-12-15T19:15:02.865Z,51.00
2022-12-15T19:15:33.648Z,47.30
2022-12-15T19:16:04.564Z,44.80
2022-12-15T19:16:35.392Z,43.50
2022-12-15T19:17:06.244Z,45.40
2022-12-15T19:17:37.076Z,44.50
2022-12-15T19:18:08.034Z,43.40
2022-12-15T19:18:39.059Z,45.40
2022-12-15T19:19:15.399Z,44.30
2022-12-15T19:19:42.739Z,43.30
2022-12-15T19:20:13.765Z,42.30
2022-12-15T19:20:45.350Z,43.90
2022-12-15T19:21:16.511Z,43.00
2022-12-15T19:21:47.802Z,42.80
2022-12-15T19:22:18.698Z,43.10
2022-12-15T19:22:50.120Z,44.40
2022-12-15T19:23:21.616Z,42.90
2022-12-15T19:23:52.727Z,45.40
2022-12-15T19:24:23.703Z,45.30
2022-12-15T19:24:55.009Z,45.20
2022-12-15T19:25:26.648Z,44.90
2022-12-15T19:25:57.705Z,43.70
2022-12-15T19:26:28.642Z,45.40
2022-12-15T19:26:59.743Z,43.70
2022-12-15T19:27:30.859Z,44.70
2022-12-15T19:28:01.639Z,45.90
2022-12-15T19:28:32.449Z,47.40
2022-12-15T19:29:03.226Z,48.30
2022-12-15T19:29:34.012Z,47.60
2022-12-15T19:30:04.856Z,47.70
2022-12-15T19:30:41.757Z,48.70
2022-12-15T19:31:08.341Z,48.20
2022-12-15T19:31:39.349Z,51.00
2022-12-15T19:32:10.146Z,51.70
2022-12-15T19:32:40.977Z,49.10
2022-12-15T19:33:12.938Z,46.30
2022-12-15T19:33:43.777Z,45.80
2022-12-15T19:34:14.597Z,44.40
2022-12-15T19:34:45.400Z,44.40
2022-12-15T19:35:16.198Z,44.60
2022-12-15T19:35:46.999Z,44.40
2022-12-15T19:36:17.770Z,46.40
2022-12-15T19:36:48.562Z,49.20
2022-12-15T19:37:19.343Z,50.00
2022-12-15T19:37:50.189Z,57.00
2022-12-15T19:38:20.991Z,62.00
2022-12-15T19:38:53.211Z,60.60
2022-12-15T19:39:24.038Z,59.40
2022-12-15T19:39:54.845Z,62.90
2022-12-15T19:40:25.646Z,57.40
2022-12-15T19:40:56.420Z,56.80
2022-12-15T19:41:27.267Z,57.00
2022-12-15T19:41:58.060Z,57.50
2022-12-15T19:42:28.854Z,58.10
2022-12-15T19:42:59.664Z,50.10
2022-12-15T19:43:31.985Z,45.40
2022-12-15T19:44:03.146Z,43.50
2022-12-15T19:44:34.100Z,45.10
2022-12-15T19:45:05.729Z,43.90
2022-12-15T19:45:36.617Z,43.20
2022-12-15T19:46:07.782Z,41.60
2022-12-15T19:46:38.946Z,40.60
2022-12-15T19:47:10.013Z,42.70
2022-12-15T19:47:41.085Z,44.40
2022-12-15T19:48:12.122Z,43.50
2022-12-15T19:48:42.957Z,43.70
2022-12-15T19:49:13.707Z,44.60
2022-12-15T19:49:44.520Z,44.30
2022-12-15T19:50:15.338Z,41.80
2022-12-15T19:50:46.224Z,41.70
2022-12-15T19:51:17.045Z,41.80
2022-12-15T19:51:47.885Z,39.70
2022-12-15T19:52:18.971Z,40.30
2022-12-15T19:52:50.174Z,41.00
2022-12-15T19:53:21.049Z,40.70
2022-12-15T19:53:52.076Z,42.80
2022-12-15T19:54:22.925Z,40.70
2022-12-15T19:54:53.690Z,41.90
2022-12-15T19:55:24.468Z,42.10
2022-12-15T19:55:55.285Z,40.20
2022-12-15T19:56:26.340Z,40.10
2022-12-15T19:56:57.355Z,41.20
2022-12-15T19:57:28.182Z,41.20
2022-12-15T19:57:59.035Z,41.70
2022-12-15T19:58:29.868Z,42.00
2022-12-15T19:59:00.778Z,44.40
2022-12-15T19:59:31.631Z,42.40
2022-12-15T20:00:02.444Z,45.40
2022-12-15T20:00:33.345Z,41.70
2022-12-15T20:01:04.321Z,41.70
2022-12-15T20:01:35.337Z,42.20
2022-12-15T20:02:06.509Z,42.50
2022-12-15T20:02:37.585Z,42.50
2022-12-15T20:03:08.525Z,42.50
2022-12-15T20:03:39.802Z,43.10
2022-12-15T20:04:10.818Z,45.10
2022-12-15T20:04:41.631Z,45.10
2022-12-15T20:05:12.418Z,43.80
2022-12-15T20:05:43.260Z,43.30
2022-12-15T20:06:14.059Z,42.50
2022-12-15T20:06:44.876Z,41.60
2022-12-15T20:07:15.755Z,43.60
2022-12-15T20:07:46.567Z,44.40
2022-12-15T20:08:17.442Z,44.60
2022-12-15T20:08:48.351Z,44.50
2022-12-15T20:09:19.153Z,44.70
2022-12-15T20:09:50.001Z,43.10
2022-12-15T20:10:24.640Z,43.30
2022-12-15T20:10:53.519Z,43.80
2022-12-15T20:11:24.375Z,45.10
2022-12-15T20:11:55.189Z,45.40
2022-12-15T20:12:26.002Z,47.90
2022-12-15T20:12:56.825Z,43.70
2022-12-15T20:13:27.664Z,43.40
2022-12-15T20:13:58.534Z,47.20
2022-12-15T20:14:29.399Z,47.30
2022-12-15T20:15:00.281Z,47.90
2022-12-15T20:15:31.233Z,47.50
2022-12-15T20:16:02.135Z,46.10
2022-12-15T20:16:33.013Z,47.40
2022-12-15T20:17:03.923Z,45.30
2022-12-15T20:17:34.841Z,50.20
2022-12-15T20:18:05.682Z,52.50
2022-12-15T20:18:36.579Z,52.30
2022-12-15T20:19:07.429Z,52.10
2022-12-15T20:19:38.243Z,54.20
2022-12-15T20:20:09.089Z,53.90
2022-12-15T20:20:39.922Z,49.80
2022-12-15T20:21:10.842Z,50.60
2022-12-15T20:21:41.651Z,55.30
2022-12-15T20:22:12.468Z,58.10
2022-12-15T20:22:43.319Z,58.20
2022-12-15T20:23:14.121Z,58.20
2022-12-15T20:23:44.930Z,52.50
2022-12-15T20:24:15.819Z,51.40
2022-12-15T20:24:46.666Z,52.80
2022-12-15T20:25:17.503Z,52.80
2022-12-15T20:25:48.341Z,53.40
2022-12-15T20:26:19.187Z,52.80
2022-12-15T20:26:50.024Z,52.60
2022-12-15T20:27:20.887Z,52.10
2022-12-15T20:27:51.696Z,53.30
2022-12-15T20:28:22.531Z,51.20
2022-12-15T20:28:53.464Z,49.20
2022-12-15T20:29:24.317Z,53.30
2022-12-15T20:29:55.158Z,51.60
2022-12-15T20:30:25.999Z,52.00
2022-12-15T20:30:56.793Z,51.10
2022-12-15T20:31:27.637Z,50.60
2022-12-15T20:31:58.621Z,52.30
2022-12-15T20:32:32.631Z,53.50
2022-12-15T20:33:01.976Z,54.00
2022-12-15T20:33:32.993Z,49.20
2022-12-15T20:34:04.043Z,50.10
2022-12-15T20:34:34.813Z,53.10
2022-12-15T20:35:05.580Z,51.30
2022-12-15T20:35:36.379Z,51.60
2022-12-15T20:36:07.166Z,47.70
2022-12-15T20:36:37.985Z,47.60
2022-12-15T20:37:08.786Z,50.40
2022-12-15T20:37:39.576Z,49.90
2022-12-15T20:38:10.396Z,49.60
2022-12-15T20:38:41.184Z,51.00
2022-12-15T20:39:12.006Z,48.60
2022-12-15T20:39:42.800Z,48.80
2022-12-15T20:40:13.637Z,50.80
2022-12-15T20:40:44.420Z,48.10
2022-12-15T20:41:15.226Z,48.70
2022-12-15T20:41:46.115Z,47.90
2022-12-15T20:42:16.936Z,46.50
2022-12-15T20:42:47.749Z,47.70
2022-12-15T20:43:18.565Z,46.20
2022-12-15T20:43:49.355Z,47.90
2022-12-15T20:44:20.209Z,46.80
2022-12-15T20:44:51.011Z,48.40
2022-12-15T20:45:21.829Z,48.30
2022-12-15T20:45:57.888Z,49.90
2022-12-15T20:46:25.296Z,47.20
2022-12-15T20:46:56.137Z,48.70
2022-12-15T20:47:26.973Z,47.30
2022-12-15T20:47:57.827Z,48.90
2022-12-15T20:48:28.629Z,46.90
2022-12-15T20:48:59.451Z,46.40
2022-12-15T20:49:30.280Z,46.10
2022-12-15T20:50:01.137Z,45.80
2022-12-15T20:50:31.951Z,46.40
2022-12-15T20:51:07.477Z,45.70
2022-12-15T20:51:35.482Z,47.00
2022-12-15T20:52:06.308Z,48.10
2022-12-15T20:52:37.112Z,46.80
2022-12-15T20:53:07.944Z,50.00
2022-12-15T20:53:39.318Z,47.60
2022-12-15T20:54:10.149Z,46.30
2022-12-15T20:54:40.935Z,47.40
2022-12-15T20:55:11.737Z,46.90
2022-12-15T20:55:42.540Z,49.30
2022-12-15T20:56:13.374Z,48.20
2022-12-15T20:56:44.248Z,48.50
2022-12-15T20:57:15.226Z,47.90
2022-12-15T20:57:46.134Z,46.90
2022-12-15T20:58:16.953Z,47.70
2022-12-15T20:58:47.792Z,49.50
2022-12-15T20:59:19.565Z,48.30
2022-12-15T20:59:50.527Z,48.50
2022-12-15T21:00:21.302Z,49.70
2022-12-15T21:00:52.144Z,49.90
2022-12-15T21:01:22.698Z,49.80
2022-12-15T21:01:53.622Z,48.40
2022-12-15T21:02:25.921Z,46.10
2022-12-15T21:02:56.949Z,48.20
2022-12-15T21:03:27.915Z,48.80
2022-12-15T21:03:58.759Z,51.10
2022-12-15T21:04:29.576Z,48.90
2022-12-15T21:05:00.381Z,52.00
2022-12-15T21:05:31.233Z,49.60
2022-12-15T21:06:02.027Z,50.00
2022-12-15T21:06:32.831Z,53.50
2022-12-15T21:07:03.592Z,51.40
2022-12-15T21:07:34.388Z,52.50
2022-12-15T21:08:05.182Z,51.10
2022-12-15T21:08:35.951Z,52.10
2022-12-15T21:09:06.710Z,51.00
2022-12-15T21:09:37.549Z,50.00
2022-12-15T21:10:08.313Z,49.70
2022-12-15T21:10:39.109Z,48.50
2022-12-15T21:11:09.891Z,50.90
2022-12-15T21:11:40.670Z,52.10
2022-12-15T21:12:11.464Z,49.50
2022-12-15T21:12:42.247Z,50.20
2022-12-15T21:13:13.089Z,51.60
2022-12-15T21:13:43.887Z,51.20
2022-12-15T21:14:14.668Z,48.60
2022-12-15T21:14:45.500Z,51.20
2022-12-15T21:15:16.294Z,51.70
2022-12-15T21:15:47.089Z,50.90
2022-12-15T21:16:17.965Z,50.60
2022-12-15T21:16:48.851Z,48.40
2022-12-15T21:17:19.653Z,49.60
2022-12-15T21:17:57.921Z,51.00
2022-12-15T21:19:03.995Z,50.50
2022-12-15T21:19:28.742Z,49.70
2022-12-15T21:19:59.739Z,52.30
2022-12-15T21:20:30.512Z,51.50
2022-12-15T21:21:01.341Z,52.90
2022-12-15T21:21:32.146Z,54.30
2022-12-15T21:22:02.949Z,52.60
2022-12-15T21:22:33.841Z,51.90
2022-12-15T21:23:04.703Z,52.10
2022-12-15T21:23:39.707Z,51.90
2022-12-15T21:24:08.134Z,51.70
2022-12-15T21:24:38.941Z,53.60
2022-12-15T21:25:09.779Z,50.70
2022-12-15T21:25:40.567Z,50.20
2022-12-15T21:26:11.383Z,51.90
2022-12-15T21:26:42.166Z,50.50
2022-12-15T21:27:13.006Z,48.60
2022-12-15T21:27:43.785Z,49.40
2022-12-15T21:28:14.572Z,52.50
2022-12-15T21:28:45.429Z,51.50
2022-12-15T21:29:16.195Z,50.00
2022-12-15T21:29:52.291Z,50.20
2022-12-15T21:30:19.695Z,50.70
2022-12-15T21:30:50.570Z,52.70
2022-12-15T21:31:21.481Z,52.00
2022-12-15T21:31:52.274Z,50.30
2022-12-15T21:32:23.062Z,49.70
2022-12-15T21:32:53.883Z,51.90
2022-12-15T21:33:25.278Z,50.30
2022-12-15T21:33:56.081Z,51.30
2022-12-15T21:34:26.854Z,52.70
2022-12-15T21:34:57.685Z,50.60
2022-12-15T21:35:31.789Z,52.00
2022-12-15T21:35:59.746Z,50.60
2022-12-15T21:36:30.513Z,50.80
2022-12-15T21:37:01.335Z,50.50
2022-12-15T21:37:32.128Z,50.60
2022-12-15T21:38:02.926Z,52.30
2022-12-15T21:38:34.083Z,54.50
2022-12-15T21:39:05.148Z,53.60
2022-12-15T21:39:35.993Z,50.10
2022-12-15T21:40:06.784Z,51.40
2022-12-15T21:40:37.606Z,51.30
2022-12-15T21:41:08.501Z,51.50
2022-12-15T21:41:39.299Z,50.90
2022-12-15T21:42:10.115Z,51.20
2022-12-15T21:42:40.903Z,53.40
2022-12-15T21:43:11.730Z,54.50
2022-12-15T21:43:42.542Z,54.50
2022-12-15T21:44:13.346Z,53.90
2022-12-15T21:44:44.146Z,52.80
2022-12-15T21:45:14.928Z,52.90
2022-12-15T21:45:45.746Z,52.50
2022-12-15T21:47:16.060Z,51.90
2022-12-15T21:47:46.817Z,51.40
2022-12-15T21:48:17.570Z,52.00
2022-12-15T21:48:48.310Z,53.90
2022-12-15T21:49:19.123Z,53.80
2022-12-15T21:49:49.885Z,54.80
2022-12-15T21:50:21.432Z,51.80
2022-12-15T21:50:52.218Z,51.90
2022-12-15T21:51:22.953Z,54.00
2022-12-15T21:51:53.720Z,52.60
2022-12-15T21:52:25.780Z,53.60
2022-12-15T21:52:56.549Z,53.80
2022-12-15T21:53:27.312Z,54.10
2022-12-15T21:53:58.065Z,54.10
2022-12-15T21:54:31.216Z,53.50
2022-12-15T21:54:59.306Z,54.90
2022-12-15T21:55:30.061Z,54.30
2022-12-15T21:56:00.833Z,55.70
2022-12-15T21:56:31.603Z,54.70
2022-12-15T21:57:02.356Z,54.50
2022-12-15T21:57:33.121Z,53.50
2022-12-15T21:58:03.881Z,54.30
2022-12-15T21:58:35.093Z,54.60
2022-12-15T21:59:06.111Z,57.00
2022-12-15T21:59:36.869Z,54.00
2022-12-15T22:00:07.622Z,55.60
2022-12-15T22:00:45.313Z,53.50
2022-12-15T22:01:11.420Z,53.70
2022-12-15T22:01:42.302Z,56.60
2022-12-15T22:02:13.212Z,53.00
2022-12-15T22:02:44.098Z,55.10
2022-12-15T22:03:14.994Z,57.00
2022-12-15T22:03:45.732Z,54.40
